sensor_id;sensor_type;location;lat;lon;timestamp;P1;durP1;ratioP1;P2;durP2;ratioP2
23179;SDS011;11758;45.756;11.432;2023-01-13T00:01:55;15.50;;;8.90;;
23179;SDS011;11758;45.756;11.432;2023-01-13T00:04:21;13.63;;;9.32;;
23179;SDS011;11758;45.756;11.432;2023-01-13T00:06:47;13.43;;;8.38;;
23179;SDS011;11758;45.756;11.432;2023-01-13T00:09:13;14.30;;;9.07;;
23179;SDS011;11758;45.756;11.432;2023-01-13T00:11:39;13.45;;;8.13;;
23179;SDS011;11758;45.756;11.432;2023-01-13T00:14:05;12.98;;;7.78;;
23179;SDS011;11758;45.756;11.432;2023-01-13T00:16:31;13.93;;;8.52;;
23179;SDS011;11758;45.756;11.432;2023-01-13T00:18:57;15.98;;;8.23;;
23179;SDS011;11758;45.756;11.432;2023-01-13T00:21:23;13.35;;;8.95;;
23179;SDS011;11758;45.756;11.432;2023-01-13T00:23:51;13.73;;;8.60;;
23179;SDS011;11758;45.756;11.432;2023-01-13T00:26:21;14.02;;;8.48;;
23179;SDS011;11758;45.756;11.432;2023-01-13T00:28:48;12.73;;;8.25;;
23179;SDS011;11758;45.756;11.432;2023-01-13T00:31:18;12.27;;;8.02;;
23179;SDS011;11758;45.756;11.432;2023-01-13T00:33:45;13.07;;;7.85;;
23179;SDS011;11758;45.756;11.432;2023-01-13T00:36:15;11.93;;;7.10;;
23179;SDS011;11758;45.756;11.432;2023-01-13T00:38:42;11.02;;;7.40;;
23179;SDS011;11758;45.756;11.432;2023-01-13T00:41:12;12.82;;;6.93;;
23179;SDS011;11758;45.756;11.432;2023-01-13T00:43:38;10.10;;;7.07;;
23179;SDS011;11758;45.756;11.432;2023-01-13T00:46:05;13.63;;;7.28;;
23179;SDS011;11758;45.756;11.432;2023-01-13T00:48:32;10.55;;;7.63;;
23179;SDS011;11758;45.756;11.432;2023-01-13T00:50:59;10.50;;;7.63;;
23179;SDS011;11758;45.756;11.432;2023-01-13T00:53:26;13.30;;;7.53;;
23179;SDS011;11758;45.756;11.432;2023-01-13T00:55:59;10.27;;;7.28;;
23179;SDS011;11758;45.756;11.432;2023-01-13T00:58:26;11.80;;;7.75;;
23179;SDS011;11758;45.756;11.432;2023-01-13T01:00:52;12.32;;;7.32;;
23179;SDS011;11758;45.756;11.432;2023-01-13T01:03:18;12.13;;;6.80;;
23179;SDS011;11758;45.756;11.432;2023-01-13T01:05:44;8.85;;;6.80;;
23179;SDS011;11758;45.756;11.432;2023-01-13T01:08:10;10.68;;;6.72;;
23179;SDS011;11758;45.756;11.432;2023-01-13T01:10:40;10.15;;;6.72;;
23179;SDS011;11758;45.756;11.432;2023-01-13T01:13:06;8.27;;;6.30;;
23179;SDS011;11758;45.756;11.432;2023-01-13T01:15:32;9.05;;;6.20;;
23179;SDS011;11758;45.756;11.432;2023-01-13T01:17:58;9.00;;;6.05;;
23179;SDS011;11758;45.756;11.432;2023-01-13T01:20:24;9.80;;;7.10;;
23179;SDS011;11758;45.756;11.432;2023-01-13T01:22:50;13.02;;;6.78;;
23179;SDS011;11758;45.756;11.432;2023-01-13T01:25:16;11.15;;;7.43;;
23179;SDS011;11758;45.756;11.432;2023-01-13T01:27:42;11.93;;;6.55;;
23179;SDS011;11758;45.756;11.432;2023-01-13T01:30:09;10.45;;;6.00;;
23179;SDS011;11758;45.756;11.432;2023-01-13T01:32:35;8.77;;;6.13;;
23179;SDS011;11758;45.756;11.432;2023-01-13T01:35:01;8.27;;;6.25;;
23179;SDS011;11758;45.756;11.432;2023-01-13T01:37:29;9.70;;;6.13;;
23179;SDS011;11758;45.756;11.432;2023-01-13T01:39:55;8.02;;;6.15;;
23179;SDS011;11758;45.756;11.432;2023-01-13T01:42:21;7.10;;;5.10;;
23179;SDS011;11758;45.756;11.432;2023-01-13T01:45:13;6.38;;;4.90;;
23179;SDS011;11758;45.756;11.432;2023-01-13T01:47:39;5.80;;;4.53;;
23179;SDS011;11758;45.756;11.432;2023-01-13T01:50:06;6.30;;;4.80;;
23179;SDS011;11758;45.756;11.432;2023-01-13T01:52:36;6.57;;;5.10;;
23179;SDS011;11758;45.756;11.432;2023-01-13T02:00:15;5.15;;;4.57;;
23179;SDS011;11758;45.756;11.432;2023-01-13T02:02:42;5.88;;;4.90;;
23179;SDS011;11758;45.756;11.432;2023-01-13T02:05:09;7.75;;;5.18;;
23179;SDS011;11758;45.756;11.432;2023-01-13T02:07:36;12.52;;;5.50;;
23179;SDS011;11758;45.756;11.432;2023-01-13T02:10:04;6.63;;;5.90;;
23179;SDS011;11758;45.756;11.432;2023-01-13T02:12:31;6.80;;;5.30;;
23179;SDS011;11758;45.756;11.432;2023-01-13T02:15:06;8.27;;;5.75;;
23179;SDS011;11758;45.756;11.432;2023-01-13T02:17:56;10.70;;;6.07;;
23179;SDS011;11758;45.756;11.432;2023-01-13T02:31:25;9.38;;;5.63;;
23179;SDS011;11758;45.756;11.432;2023-01-13T02:34:08;6.30;;;4.75;;
23179;SDS011;11758;45.756;11.432;2023-01-13T02:37:38;5.22;;;4.07;;
23179;SDS011;11758;45.756;11.432;2023-01-13T02:39:53;3.92;;;3.45;;
23179;SDS011;11758;45.756;11.432;2023-01-13T02:42:28;3.60;;;3.30;;
23179;SDS011;11758;45.756;11.432;2023-01-13T02:45:15;3.05;;;2.85;;
23179;SDS011;11758;45.756;11.432;2023-01-13T02:47:43;3.72;;;3.25;;
23179;SDS011;11758;45.756;11.432;2023-01-13T02:50:11;8.43;;;5.10;;
23179;SDS011;11758;45.756;11.432;2023-01-13T02:52:39;5.30;;;4.22;;
23179;SDS011;11758;45.756;11.432;2023-01-13T02:55:07;5.03;;;4.05;;
23179;SDS011;11758;45.756;11.432;2023-01-13T02:57:35;4.65;;;4.15;;
23179;SDS011;11758;45.756;11.432;2023-01-13T03:00:03;5.07;;;4.30;;
23179;SDS011;11758;45.756;11.432;2023-01-13T03:02:30;12.48;;;6.57;;
23179;SDS011;11758;45.756;11.432;2023-01-13T03:04:56;7.75;;;4.78;;
23179;SDS011;11758;45.756;11.432;2023-01-13T03:09:53;5.60;;;4.38;;
23179;SDS011;11758;45.756;11.432;2023-01-13T03:12:26;6.57;;;4.82;;
23179;SDS011;11758;45.756;11.432;2023-01-13T03:14:56;7.25;;;5.10;;
23179;SDS011;11758;45.756;11.432;2023-01-13T03:19:54;4.93;;;4.15;;
23179;SDS011;11758;45.756;11.432;2023-01-13T03:22:25;5.82;;;4.30;;
23179;SDS011;11758;45.756;11.432;2023-01-13T03:25:27;5.07;;;4.00;;
23179;SDS011;11758;45.756;11.432;2023-01-13T03:32:54;4.25;;;3.45;;
23179;SDS011;11758;45.756;11.432;2023-01-13T03:35:33;4.15;;;3.40;;
23179;SDS011;11758;45.756;11.432;2023-01-13T03:38:19;5.10;;;3.33;;
23179;SDS011;11758;45.756;11.432;2023-01-13T03:40:48;6.07;;;3.17;;
23179;SDS011;11758;45.756;11.432;2023-01-13T03:43:17;3.38;;;3.15;;
23179;SDS011;11758;45.756;11.432;2023-01-13T03:46:04;3.08;;;2.83;;
23179;SDS011;11758;45.756;11.432;2023-01-13T03:48:32;3.00;;;2.80;;
23179;SDS011;11758;45.756;11.432;2023-01-13T03:51:02;2.70;;;2.50;;
23179;SDS011;11758;45.756;11.432;2023-01-13T03:53:40;2.75;;;2.50;;
23179;SDS011;11758;45.756;11.432;2023-01-13T03:56:28;3.40;;;3.08;;
23179;SDS011;11758;45.756;11.432;2023-01-13T03:58:56;4.22;;;3.33;;
23179;SDS011;11758;45.756;11.432;2023-01-13T04:04:20;9.23;;;4.10;;
23179;SDS011;11758;45.756;11.432;2023-01-13T04:06:49;5.80;;;4.28;;
23179;SDS011;11758;45.756;11.432;2023-01-13T04:11:53;7.63;;;4.10;;
23179;SDS011;11758;45.756;11.432;2023-01-13T04:14:20;4.63;;;3.75;;
23179;SDS011;11758;45.756;11.432;2023-01-13T04:16:49;3.97;;;3.67;;
23179;SDS011;11758;45.756;11.432;2023-01-13T04:19:16;2.88;;;2.67;;
23179;SDS011;11758;45.756;11.432;2023-01-13T04:21:42;2.70;;;2.50;;
23179;SDS011;11758;45.756;11.432;2023-01-13T04:24:09;5.03;;;3.17;;
23179;SDS011;11758;45.756;11.432;2023-01-13T04:26:35;3.00;;;2.63;;
23179;SDS011;11758;45.756;11.432;2023-01-13T04:29:01;3.90;;;3.47;;
23179;SDS011;11758;45.756;11.432;2023-01-13T04:31:27;5.32;;;3.17;;
23179;SDS011;11758;45.756;11.432;2023-01-13T04:33:53;2.80;;;2.58;;
23179;SDS011;11758;45.756;11.432;2023-01-13T04:36:19;5.10;;;2.58;;
23179;SDS011;11758;45.756;11.432;2023-01-13T04:38:51;3.75;;;3.13;;
23179;SDS011;11758;45.756;11.432;2023-01-13T04:41:17;6.32;;;3.35;;
23179;SDS011;11758;45.756;11.432;2023-01-13T04:43:43;5.18;;;3.58;;
23179;SDS011;11758;45.756;11.432;2023-01-13T04:46:09;4.25;;;3.47;;
23179;SDS011;11758;45.756;11.432;2023-01-13T04:48:35;5.80;;;3.85;;
23179;SDS011;11758;45.756;11.432;2023-01-13T04:51:01;2.67;;;2.47;;
23179;SDS011;11758;45.756;11.432;2023-01-13T04:53:28;4.60;;;3.08;;
23179;SDS011;11758;45.756;11.432;2023-01-13T04:55:54;3.80;;;3.00;;
23179;SDS011;11758;45.756;11.432;2023-01-13T04:58:20;4.85;;;3.00;;
23179;SDS011;11758;45.756;11.432;2023-01-13T05:00:46;4.80;;;2.95;;
23179;SDS011;11758;45.756;11.432;2023-01-13T05:03:12;4.15;;;2.88;;
23179;SDS011;11758;45.756;11.432;2023-01-13T05:05:38;7.10;;;3.55;;
23179;SDS011;11758;45.756;11.432;2023-01-13T05:08:04;26.88;;;13.93;;
23179;SDS011;11758;45.756;11.432;2023-01-13T05:10:31;6.22;;;5.18;;
23179;SDS011;11758;45.756;11.432;2023-01-13T05:12:57;3.75;;;3.40;;
23179;SDS011;11758;45.756;11.432;2023-01-13T05:15:41;5.80;;;4.10;;
23179;SDS011;11758;45.756;11.432;2023-01-13T05:18:26;6.28;;;4.03;;
23179;SDS011;11758;45.756;11.432;2023-01-13T05:20:54;21.83;;;9.82;;
23179;SDS011;11758;45.756;11.432;2023-01-13T05:23:20;19.20;;;9.10;;
23179;SDS011;11758;45.756;11.432;2023-01-13T05:26:05;16.33;;;7.78;;
23179;SDS011;11758;45.756;11.432;2023-01-13T05:28:31;11.35;;;6.65;;
23179;SDS011;11758;45.756;11.432;2023-01-13T05:30:58;13.60;;;7.53;;
23179;SDS011;11758;45.756;11.432;2023-01-13T05:33:24;14.98;;;6.75;;
23179;SDS011;11758;45.756;11.432;2023-01-13T05:35:50;23.80;;;10.77;;
23179;SDS011;11758;45.756;11.432;2023-01-13T05:38:16;9.45;;;4.65;;
23179;SDS011;11758;45.756;11.432;2023-01-13T05:40:42;6.95;;;4.88;;
23179;SDS011;11758;45.756;11.432;2023-01-13T05:43:27;6.15;;;4.28;;
23179;SDS011;11758;45.756;11.432;2023-01-13T05:45:57;5.78;;;4.45;;
23179;SDS011;11758;45.756;11.432;2023-01-13T05:48:28;8.07;;;5.32;;
23179;SDS011;11758;45.756;11.432;2023-01-13T05:50:55;7.60;;;5.15;;
23179;SDS011;11758;45.756;11.432;2023-01-13T05:53:21;11.20;;;5.40;;
23179;SDS011;11758;45.756;11.432;2023-01-13T05:55:48;10.32;;;5.78;;
23179;SDS011;11758;45.756;11.432;2023-01-13T05:58:15;5.40;;;4.43;;
23179;SDS011;11758;45.756;11.432;2023-01-13T06:00:41;6.90;;;4.80;;
23179;SDS011;11758;45.756;11.432;2023-01-13T06:03:07;4.78;;;4.35;;
23179;SDS011;11758;45.756;11.432;2023-01-13T06:05:33;5.53;;;3.50;;
23179;SDS011;11758;45.756;11.432;2023-01-13T06:08:01;3.33;;;3.08;;
23179;SDS011;11758;45.756;11.432;2023-01-13T06:10:27;3.25;;;3.05;;
23179;SDS011;11758;45.756;11.432;2023-01-13T06:12:54;4.95;;;2.50;;
23179;SDS011;11758;45.756;11.432;2023-01-13T06:15:20;3.83;;;3.00;;
23179;SDS011;11758;45.756;11.432;2023-01-13T06:17:46;13.68;;;9.90;;
23179;SDS011;11758;45.756;11.432;2023-01-13T06:20:13;13.85;;;7.45;;
23179;SDS011;11758;45.756;11.432;2023-01-13T06:22:40;8.93;;;6.75;;
23179;SDS011;11758;45.756;11.432;2023-01-13T06:25:08;25.33;;;15.13;;
23179;SDS011;11758;45.756;11.432;2023-01-13T06:27:35;31.13;;;18.05;;
23179;SDS011;11758;45.756;11.432;2023-01-13T06:30:02;25.33;;;14.60;;
23179;SDS011;11758;45.756;11.432;2023-01-13T06:32:31;15.30;;;8.20;;
23179;SDS011;11758;45.756;11.432;2023-01-13T06:34:59;13.63;;;7.15;;
23179;SDS011;11758;45.756;11.432;2023-01-13T06:37:27;15.55;;;6.43;;
23179;SDS011;11758;45.756;11.432;2023-01-13T06:39:54;11.77;;;7.10;;
23179;SDS011;11758;45.756;11.432;2023-01-13T06:42:23;18.35;;;9.80;;
23179;SDS011;11758;45.756;11.432;2023-01-13T06:45:08;9.95;;;5.47;;
23179;SDS011;11758;45.756;11.432;2023-01-13T06:47:34;9.25;;;4.72;;
23179;SDS011;11758;45.756;11.432;2023-01-13T06:50:00;16.60;;;7.20;;
23179;SDS011;11758;45.756;11.432;2023-01-13T06:52:27;41.10;;;16.23;;
23179;SDS011;11758;45.756;11.432;2023-01-13T06:54:55;26.27;;;10.93;;
23179;SDS011;11758;45.756;11.432;2023-01-13T06:57:21;31.35;;;12.13;;
23179;SDS011;11758;45.756;11.432;2023-01-13T06:59:47;12.00;;;5.57;;
23179;SDS011;11758;45.756;11.432;2023-01-13T07:02:13;11.45;;;5.80;;
23179;SDS011;11758;45.756;11.432;2023-01-13T07:04:39;4.03;;;3.20;;
23179;SDS011;11758;45.756;11.432;2023-01-13T07:07:06;9.80;;;3.58;;
23179;SDS011;11758;45.756;11.432;2023-01-13T07:09:32;13.90;;;6.90;;
23179;SDS011;11758;45.756;11.432;2023-01-13T07:11:58;16.30;;;8.07;;
23179;SDS011;11758;45.756;11.432;2023-01-13T07:14:24;21.83;;;9.93;;
23179;SDS011;11758;45.756;11.432;2023-01-13T07:17:09;23.05;;;10.63;;
23179;SDS011;11758;45.756;11.432;2023-01-13T07:19:35;22.45;;;11.43;;
23179;SDS011;11758;45.756;11.432;2023-01-13T07:22:01;18.88;;;9.85;;
23179;SDS011;11758;45.756;11.432;2023-01-13T07:24:27;14.63;;;8.63;;
23179;SDS011;11758;45.756;11.432;2023-01-13T07:26:53;11.57;;;7.53;;
23179;SDS011;11758;45.756;11.432;2023-01-13T07:29:19;13.10;;;7.15;;
23179;SDS011;11758;45.756;11.432;2023-01-13T07:31:46;18.67;;;10.13;;
23179;SDS011;11758;45.756;11.432;2023-01-13T07:34:12;18.67;;;9.20;;
23179;SDS011;11758;45.756;11.432;2023-01-13T07:36:38;16.25;;;9.07;;
23179;SDS011;11758;45.756;11.432;2023-01-13T07:39:05;25.73;;;13.82;;
23179;SDS011;11758;45.756;11.432;2023-01-13T07:41:31;17.60;;;10.90;;
23179;SDS011;11758;45.756;11.432;2023-01-13T07:44:15;17.88;;;10.07;;
23179;SDS011;11758;45.756;11.432;2023-01-13T07:46:41;14.38;;;8.30;;
23179;SDS011;11758;45.756;11.432;2023-01-13T07:49:08;12.80;;;8.55;;
23179;SDS011;11758;45.756;11.432;2023-01-13T07:51:35;12.90;;;8.25;;
23179;SDS011;11758;45.756;11.432;2023-01-13T07:54:02;21.48;;;12.68;;
23179;SDS011;11758;45.756;11.432;2023-01-13T07:56:28;40.83;;;21.25;;
23179;SDS011;11758;45.756;11.432;2023-01-13T07:58:54;26.27;;;13.88;;
23179;SDS011;11758;45.756;11.432;2023-01-13T08:01:20;19.95;;;13.45;;
23179;SDS011;11758;45.756;11.432;2023-01-13T08:03:46;20.75;;;12.63;;
23179;SDS011;11758;45.756;11.432;2023-01-13T08:06:12;16.77;;;9.50;;
23179;SDS011;11758;45.756;11.432;2023-01-13T08:08:39;14.73;;;8.07;;
23179;SDS011;11758;45.756;11.432;2023-01-13T08:11:05;16.05;;;7.60;;
23179;SDS011;11758;45.756;11.432;2023-01-13T08:13:32;13.38;;;8.55;;
23179;SDS011;11758;45.756;11.432;2023-01-13T08:15:59;12.52;;;7.55;;
23179;SDS011;11758;45.756;11.432;2023-01-13T08:18:25;11.75;;;7.30;;
23179;SDS011;11758;45.756;11.432;2023-01-13T08:20:52;16.35;;;9.13;;
23179;SDS011;11758;45.756;11.432;2023-01-13T08:23:18;13.63;;;8.57;;
23179;SDS011;11758;45.756;11.432;2023-01-13T08:25:44;16.35;;;8.80;;
23179;SDS011;11758;45.756;11.432;2023-01-13T08:28:11;18.42;;;9.40;;
23179;SDS011;11758;45.756;11.432;2023-01-13T08:30:37;21.73;;;9.43;;
23179;SDS011;11758;45.756;11.432;2023-01-13T08:33:08;21.85;;;9.45;;
23179;SDS011;11758;45.756;11.432;2023-01-13T08:35:35;17.60;;;7.93;;
23179;SDS011;11758;45.756;11.432;2023-01-13T08:38:02;13.80;;;6.88;;
23179;SDS011;11758;45.756;11.432;2023-01-13T08:40:28;12.80;;;6.22;;
23179;SDS011;11758;45.756;11.432;2023-01-13T08:42:54;17.23;;;8.68;;
23179;SDS011;11758;45.756;11.432;2023-01-13T08:45:20;21.73;;;11.30;;
23179;SDS011;11758;45.756;11.432;2023-01-13T08:47:46;21.67;;;11.77;;
23179;SDS011;11758;45.756;11.432;2023-01-13T08:50:13;31.15;;;13.10;;
23179;SDS011;11758;45.756;11.432;2023-01-13T08:52:39;25.70;;;13.98;;
23179;SDS011;11758;45.756;11.432;2023-01-13T08:55:06;26.67;;;14.63;;
23179;SDS011;11758;45.756;11.432;2023-01-13T08:57:32;29.90;;;14.30;;
23179;SDS011;11758;45.756;11.432;2023-01-13T08:59:58;29.98;;;13.90;;
23179;SDS011;11758;45.756;11.432;2023-01-13T09:02:24;25.77;;;14.25;;
23179;SDS011;11758;45.756;11.432;2023-01-13T09:04:51;27.00;;;14.02;;
23179;SDS011;11758;45.756;11.432;2023-01-13T09:07:17;24.00;;;13.95;;
23179;SDS011;11758;45.756;11.432;2023-01-13T09:09:43;35.35;;;15.60;;
23179;SDS011;11758;45.756;11.432;2023-01-13T09:12:10;26.52;;;14.35;;
23179;SDS011;11758;45.756;11.432;2023-01-13T09:14:56;28.13;;;14.93;;
23179;SDS011;11758;45.756;11.432;2023-01-13T09:17:22;27.90;;;14.40;;
23179;SDS011;11758;45.756;11.432;2023-01-13T09:19:48;24.02;;;14.25;;
23179;SDS011;11758;45.756;11.432;2023-01-13T09:22:15;19.63;;;12.82;;
23179;SDS011;11758;45.756;11.432;2023-01-13T09:24:42;19.88;;;12.13;;
23179;SDS011;11758;45.756;11.432;2023-01-13T09:27:09;20.27;;;11.02;;
23179;SDS011;11758;45.756;11.432;2023-01-13T09:29:35;19.25;;;11.85;;
23179;SDS011;11758;45.756;11.432;2023-01-13T09:32:01;18.00;;;11.50;;
23179;SDS011;11758;45.756;11.432;2023-01-13T09:34:29;21.45;;;12.60;;
23179;SDS011;11758;45.756;11.432;2023-01-13T09:37:30;18.02;;;11.63;;
23179;SDS011;11758;45.756;11.432;2023-01-13T09:39:58;18.65;;;11.75;;
23179;SDS011;11758;45.756;11.432;2023-01-13T09:45:29;21.75;;;12.93;;
23179;SDS011;11758;45.756;11.432;2023-01-13T09:48:04;40.50;;;18.98;;
23179;SDS011;11758;45.756;11.432;2023-01-13T09:50:35;44.38;;;22.52;;
23179;SDS011;11758;45.756;11.432;2023-01-13T09:53:03;37.88;;;20.05;;
23179;SDS011;11758;45.756;11.432;2023-01-13T09:55:33;20.02;;;12.30;;
23179;SDS011;11758;45.756;11.432;2023-01-13T09:58:02;31.00;;;14.95;;
23179;SDS011;11758;45.756;11.432;2023-01-13T10:00:36;28.95;;;16.00;;
23179;SDS011;11758;45.756;11.432;2023-01-13T10:05:35;20.92;;;11.52;;
23179;SDS011;11758;45.756;11.432;2023-01-13T10:08:12;18.85;;;9.88;;
23179;SDS011;11758;45.756;11.432;2023-01-13T10:10:44;11.43;;;8.02;;
23179;SDS011;11758;45.756;11.432;2023-01-13T10:13:21;10.82;;;7.63;;
23179;SDS011;11758;45.756;11.432;2023-01-13T10:15:54;19.90;;;10.23;;
23179;SDS011;11758;45.756;11.432;2023-01-13T10:29:20;11.82;;;7.30;;
23179;SDS011;11758;45.756;11.432;2023-01-13T10:31:49;12.48;;;8.10;;
23179;SDS011;11758;45.756;11.432;2023-01-13T10:34:15;13.00;;;7.80;;
23179;SDS011;11758;45.756;11.432;2023-01-13T10:36:57;14.85;;;9.35;;
23179;SDS011;11758;45.756;11.432;2023-01-13T10:39:24;16.60;;;10.68;;
23179;SDS011;11758;45.756;11.432;2023-01-13T10:42:04;13.30;;;7.65;;
23179;SDS011;11758;45.756;11.432;2023-01-13T10:44:30;13.95;;;7.35;;
23179;SDS011;11758;45.756;11.432;2023-01-13T10:46:57;11.60;;;7.30;;
23179;SDS011;11758;45.756;11.432;2023-01-13T10:49:24;10.50;;;7.80;;
23179;SDS011;11758;45.756;11.432;2023-01-13T10:51:52;10.20;;;6.68;;
23179;SDS011;11758;45.756;11.432;2023-01-13T10:54:19;8.18;;;6.30;;
23179;SDS011;11758;45.756;11.432;2023-01-13T10:56:49;9.77;;;6.90;;
23179;SDS011;11758;45.756;11.432;2023-01-13T10:59:35;10.20;;;6.55;;
23179;SDS011;11758;45.756;11.432;2023-01-13T11:02:02;11.95;;;7.40;;
23179;SDS011;11758;45.756;11.432;2023-01-13T11:04:34;10.20;;;7.13;;
23179;SDS011;11758;45.756;11.432;2023-01-13T11:07:04;14.55;;;8.73;;
23179;SDS011;11758;45.756;11.432;2023-01-13T11:09:31;11.75;;;8.27;;
23179;SDS011;11758;45.756;11.432;2023-01-13T11:11:58;14.07;;;8.70;;
23179;SDS011;11758;45.756;11.432;2023-01-13T11:14:40;15.50;;;9.35;;
23179;SDS011;11758;45.756;11.432;2023-01-13T11:20:04;21.33;;;12.40;;
23179;SDS011;11758;45.756;11.432;2023-01-13T11:22:31;18.25;;;9.38;;
23179;SDS011;11758;45.756;11.432;2023-01-13T11:24:59;13.02;;;8.32;;
23179;SDS011;11758;45.756;11.432;2023-01-13T11:30:19;14.30;;;9.10;;
23179;SDS011;11758;45.756;11.432;2023-01-13T11:35:31;12.30;;;7.80;;
23179;SDS011;11758;45.756;11.432;2023-01-13T11:38:10;11.60;;;8.38;;
23179;SDS011;11758;45.756;11.432;2023-01-13T11:40:39;15.30;;;7.72;;
23179;SDS011;11758;45.756;11.432;2023-01-13T11:43:20;13.32;;;8.18;;
23179;SDS011;11758;45.756;11.432;2023-01-13T11:45:50;12.40;;;8.15;;
23179;SDS011;11758;45.756;11.432;2023-01-13T11:48:18;13.95;;;7.90;;
23179;SDS011;11758;45.756;11.432;2023-01-13T11:53:33;12.05;;;8.52;;
23179;SDS011;11758;45.756;11.432;2023-01-13T11:56:24;11.38;;;7.35;;
23179;SDS011;11758;45.756;11.432;2023-01-13T12:01:39;10.90;;;7.47;;
23179;SDS011;11758;45.756;11.432;2023-01-13T12:04:20;11.93;;;7.50;;
23179;SDS011;11758;45.756;11.432;2023-01-13T12:07:34;9.60;;;6.80;;
23179;SDS011;11758;45.756;11.432;2023-01-13T12:12:31;12.02;;;7.80;;
23179;SDS011;11758;45.756;11.432;2023-01-13T12:15:12;12.27;;;8.20;;
23179;SDS011;11758;45.756;11.432;2023-01-13T12:17:54;11.02;;;8.23;;
23179;SDS011;11758;45.756;11.432;2023-01-13T12:20:29;13.98;;;8.98;;
23179;SDS011;11758;45.756;11.432;2023-01-13T12:22:59;22.70;;;10.18;;
23179;SDS011;11758;45.756;11.432;2023-01-13T12:25:31;15.48;;;9.40;;
23179;SDS011;11758;45.756;11.432;2023-01-13T12:27:59;15.07;;;9.70;;
23179;SDS011;11758;45.756;11.432;2023-01-13T12:30:28;15.32;;;10.27;;
23179;SDS011;11758;45.756;11.432;2023-01-13T12:33:02;13.48;;;9.43;;
23179;SDS011;11758;45.756;11.432;2023-01-13T12:38:00;14.90;;;9.57;;
23179;SDS011;11758;45.756;11.432;2023-01-13T12:40:43;16.27;;;9.80;;
23179;SDS011;11758;45.756;11.432;2023-01-13T12:43:16;13.55;;;9.60;;
23179;SDS011;11758;45.756;11.432;2023-01-13T12:53:52;14.73;;;10.45;;
23179;SDS011;11758;45.756;11.432;2023-01-13T12:58:48;15.70;;;11.50;;
23179;SDS011;11758;45.756;11.432;2023-01-13T13:01:14;17.85;;;11.55;;
23179;SDS011;11758;45.756;11.432;2023-01-13T13:03:40;16.52;;;10.80;;
23179;SDS011;11758;45.756;11.432;2023-01-13T13:06:19;16.33;;;11.02;;
23179;SDS011;11758;45.756;11.432;2023-01-13T13:11:20;14.45;;;9.90;;
23179;SDS011;11758;45.756;11.432;2023-01-13T13:14:11;26.88;;;17.55;;
23179;SDS011;11758;45.756;11.432;2023-01-13T13:16:44;22.20;;;14.65;;
23179;SDS011;11758;45.756;11.432;2023-01-13T13:24:29;30.50;;;18.08;;
23179;SDS011;11758;45.756;11.432;2023-01-13T13:26:55;19.83;;;13.13;;
23179;SDS011;11758;45.756;11.432;2023-01-13T13:29:30;22.42;;;15.38;;
23179;SDS011;11758;45.756;11.432;2023-01-13T13:32:10;28.42;;;14.98;;
23179;SDS011;11758;45.756;11.432;2023-01-13T13:39:49;20.13;;;14.23;;
23179;SDS011;11758;45.756;11.432;2023-01-13T13:42:39;25.33;;;15.57;;
23179;SDS011;11758;45.756;11.432;2023-01-13T13:45:26;20.70;;;12.32;;
23179;SDS011;11758;45.756;11.432;2023-01-13T13:48:20;19.00;;;12.43;;
23179;SDS011;11758;45.756;11.432;2023-01-13T13:50:48;20.40;;;10.98;;
23179;SDS011;11758;45.756;11.432;2023-01-13T13:53:15;18.27;;;10.93;;
23179;SDS011;11758;45.756;11.432;2023-01-13T13:55:50;14.10;;;9.15;;
23179;SDS011;11758;45.756;11.432;2023-01-13T13:58:18;16.95;;;9.70;;
23179;SDS011;11758;45.756;11.432;2023-01-13T14:00:48;14.98;;;9.10;;
23179;SDS011;11758;45.756;11.432;2023-01-13T14:03:21;18.38;;;8.88;;
23179;SDS011;11758;45.756;11.432;2023-01-13T14:05:56;9.13;;;7.32;;
23179;SDS011;11758;45.756;11.432;2023-01-13T14:08:23;10.82;;;8.07;;
23179;SDS011;11758;45.756;11.432;2023-01-13T14:10:50;14.18;;;8.38;;
23179;SDS011;11758;45.756;11.432;2023-01-13T14:15:42;21.83;;;10.23;;
23179;SDS011;11758;45.756;11.432;2023-01-13T14:18:13;17.90;;;10.48;;
23179;SDS011;11758;45.756;11.432;2023-01-13T14:20:41;16.52;;;10.45;;
23179;SDS011;11758;45.756;11.432;2023-01-13T14:23:17;20.42;;;11.20;;
23179;SDS011;11758;45.756;11.432;2023-01-13T14:25:48;20.83;;;10.98;;
23179;SDS011;11758;45.756;11.432;2023-01-13T14:28:17;18.83;;;11.02;;
23179;SDS011;11758;45.756;11.432;2023-01-13T14:30:45;21.40;;;11.77;;
23179;SDS011;11758;45.756;11.432;2023-01-13T14:33:19;21.10;;;11.95;;
23179;SDS011;11758;45.756;11.432;2023-01-13T14:36:06;17.67;;;11.95;;
23179;SDS011;11758;45.756;11.432;2023-01-13T14:38:33;20.52;;;11.75;;
23179;SDS011;11758;45.756;11.432;2023-01-13T14:41:10;18.77;;;11.38;;
23179;SDS011;11758;45.756;11.432;2023-01-13T14:43:41;16.83;;;11.43;;
23179;SDS011;11758;45.756;11.432;2023-01-13T14:46:08;16.85;;;11.02;;
23179;SDS011;11758;45.756;11.432;2023-01-13T14:48:35;19.65;;;10.93;;
23179;SDS011;11758;45.756;11.432;2023-01-13T14:51:07;18.98;;;10.45;;
23179;SDS011;11758;45.756;11.432;2023-01-13T14:58:49;156.20;;;36.95;;
23179;SDS011;11758;45.756;11.432;2023-01-13T15:03:52;24.98;;;14.07;;
23179;SDS011;11758;45.756;11.432;2023-01-13T15:06:23;18.35;;;11.35;;
23179;SDS011;11758;45.756;11.432;2023-01-13T15:08:50;17.63;;;10.05;;
23179;SDS011;11758;45.756;11.432;2023-01-13T15:11:18;21.20;;;10.80;;
23179;SDS011;11758;45.756;11.432;2023-01-13T15:13:46;24.10;;;13.38;;
23179;SDS011;11758;45.756;11.432;2023-01-13T15:16:19;20.13;;;11.52;;
23179;SDS011;11758;45.756;11.432;2023-01-13T15:18:45;13.93;;;9.35;;
23179;SDS011;11758;45.756;11.432;2023-01-13T15:21:12;12.93;;;8.88;;
23179;SDS011;11758;45.756;11.432;2023-01-13T15:23:39;14.45;;;9.20;;
23179;SDS011;11758;45.756;11.432;2023-01-13T15:26:39;20.75;;;9.60;;
23179;SDS011;11758;45.756;11.432;2023-01-13T15:28:59;17.38;;;10.40;;
23179;SDS011;11758;45.756;11.432;2023-01-13T15:31:25;16.13;;;9.55;;
23179;SDS011;11758;45.756;11.432;2023-01-13T15:33:52;16.90;;;10.35;;
23179;SDS011;11758;45.756;11.432;2023-01-13T15:38:47;13.18;;;9.10;;
23179;SDS011;11758;45.756;11.432;2023-01-13T15:41:13;13.65;;;8.73;;
23179;SDS011;11758;45.756;11.432;2023-01-13T15:43:40;19.65;;;11.57;;
23179;SDS011;11758;45.756;11.432;2023-01-13T15:46:24;13.57;;;9.32;;
23179;SDS011;11758;45.756;11.432;2023-01-13T15:49:07;11.68;;;7.22;;
23179;SDS011;11758;45.756;11.432;2023-01-13T15:51:37;9.52;;;6.18;;
23179;SDS011;11758;45.756;11.432;2023-01-13T15:54:05;10.68;;;6.85;;
23179;SDS011;11758;45.756;11.432;2023-01-13T15:56:31;6.20;;;5.22;;
23179;SDS011;11758;45.756;11.432;2023-01-13T15:59:00;4.95;;;4.50;;
23179;SDS011;11758;45.756;11.432;2023-01-13T16:01:26;6.85;;;5.68;;
23179;SDS011;11758;45.756;11.432;2023-01-13T16:03:52;13.20;;;8.15;;
23179;SDS011;11758;45.756;11.432;2023-01-13T16:06:20;28.10;;;14.70;;
23179;SDS011;11758;45.756;11.432;2023-01-13T16:08:46;28.50;;;13.45;;
23179;SDS011;11758;45.756;11.432;2023-01-13T16:11:13;12.68;;;8.25;;
23179;SDS011;11758;45.756;11.432;2023-01-13T16:13:40;9.07;;;6.10;;
23179;SDS011;11758;45.756;11.432;2023-01-13T16:16:12;7.22;;;5.55;;
23179;SDS011;11758;45.756;11.432;2023-01-13T16:18:40;6.50;;;5.57;;
23179;SDS011;11758;45.756;11.432;2023-01-13T16:21:09;8.77;;;6.75;;